createdAt,value
2017-10-09T00:00:11.733Z,7.80
2017-10-09T00:00:45.442Z,7.80
2017-10-09T00:01:19.506Z,7.80
2017-10-09T00:01:53.202Z,7.70
2017-10-09T00:02:26.904Z,7.70
2017-10-09T00:03:01.026Z,7.70
2017-10-09T00:03:34.736Z,7.70
2017-10-09T00:04:08.440Z,7.70
2017-10-09T00:04:42.957Z,7.70
2017-10-09T00:05:17.414Z,7.60
2017-10-09T00:05:51.522Z,7.60
2017-10-09T00:06:25.577Z,7.60
2017-10-09T00:07:02.325Z,7.60
2017-10-09T00:07:36.045Z,7.60
2017-10-09T00:08:09.793Z,7.60
2017-10-09T00:08:43.504Z,7.60
2017-10-09T00:09:17.967Z,7.50
2017-10-09T00:09:51.592Z,7.50
2017-10-09T00:10:26.052Z,7.50
2017-10-09T00:10:59.779Z,7.50
2017-10-09T00:11:33.832Z,7.50
2017-10-09T00:12:07.525Z,7.50
2017-10-09T00:12:41.046Z,7.50
2017-10-09T00:13:14.855Z,7.50
2017-10-09T00:13:48.561Z,7.50
2017-10-09T00:14:23.033Z,7.50
2017-10-09T00:14:56.572Z,7.50
2017-10-09T00:15:30.090Z,7.50
2017-10-09T00:16:03.682Z,7.50
2017-10-09T00:16:37.608Z,7.50
2017-10-09T00:17:11.902Z,7.40
2017-10-09T00:17:45.418Z,7.40
2017-10-09T00:18:18.929Z,7.40
2017-10-09T00:18:52.650Z,7.40
2017-10-09T00:19:26.164Z,7.40
2017-10-09T00:20:00.458Z,7.40
2017-10-09T00:20:34.009Z,7.40
2017-10-09T00:21:07.545Z,7.40
2017-10-09T00:21:42.371Z,7.30
2017-10-09T00:22:16.863Z,7.30
2017-10-09T00:22:50.392Z,7.30
2017-10-09T00:23:23.922Z,7.30
2017-10-09T00:23:58.254Z,7.30
2017-10-09T00:24:32.537Z,7.30
2017-10-09T00:25:06.091Z,7.30
2017-10-09T00:25:39.597Z,7.30
2017-10-09T00:26:13.149Z,7.30
2017-10-09T00:26:46.942Z,7.30
2017-10-09T00:27:20.469Z,7.30
2017-10-09T00:27:54.031Z,7.30
2017-10-09T00:28:27.553Z,7.20
2017-10-09T00:29:01.081Z,7.30
2017-10-09T00:29:37.196Z,7.30
2017-10-09T00:30:11.492Z,7.20
2017-10-09T00:30:44.994Z,7.20
2017-10-09T00:31:19.276Z,7.20
2017-10-09T00:31:53.913Z,7.20
2017-10-09T00:32:27.429Z,7.20
2017-10-09T00:33:00.966Z,7.20
2017-10-09T00:33:35.235Z,7.20
2017-10-09T00:34:08.753Z,7.20
2017-10-09T00:34:43.101Z,7.20
2017-10-09T00:35:16.797Z,7.20
2017-10-09T00:35:50.516Z,7.20
2017-10-09T00:36:24.492Z,7.20
2017-10-09T00:36:58.571Z,7.20
2017-10-09T00:37:32.288Z,7.20
2017-10-09T00:38:06.016Z,7.10
2017-10-09T00:38:40.496Z,7.10
2017-10-09T00:39:14.211Z,7.10
2017-10-09T00:39:48.344Z,7.10
2017-10-09T00:40:22.125Z,7.10
2017-10-09T00:40:55.835Z,7.10
2017-10-09T00:41:29.547Z,7.10
2017-10-09T00:42:03.297Z,7.10
2017-10-09T00:42:40.069Z,7.10
2017-10-09T00:43:13.796Z,7.10
2017-10-09T00:43:47.741Z,7.10
2017-10-09T00:44:21.872Z,7.00
2017-10-09T00:44:55.595Z,7.00
2017-10-09T00:45:29.306Z,7.00
2017-10-09T00:46:03.014Z,7.00
2017-10-09T00:46:37.320Z,7.00
2017-10-09T00:47:11.504Z,7.00
2017-10-09T00:47:45.205Z,7.00
2017-10-09T00:48:19.673Z,7.00
2017-10-09T00:48:53.197Z,7.00
2017-10-09T00:49:27.536Z,7.00
2017-10-09T00:50:01.064Z,7.00
2017-10-09T00:50:34.772Z,7.00
2017-10-09T00:51:08.547Z,7.00
2017-10-09T00:51:41.897Z,7.00
2017-10-09T00:52:15.748Z,7.00
2017-10-09T00:52:50.246Z,7.00
2017-10-09T00:53:23.661Z,7.00
2017-10-09T00:53:57.371Z,7.00
2017-10-09T00:54:31.061Z,7.00
2017-10-09T00:55:04.444Z,7.00
2017-10-09T00:55:37.453Z,6.90
2017-10-09T00:56:10.460Z,6.90
2017-10-09T00:56:44.238Z,6.90
2017-10-09T00:57:18.315Z,6.90
2017-10-09T00:57:52.008Z,6.90
2017-10-09T00:58:25.737Z,6.90
2017-10-09T00:58:59.466Z,6.90
2017-10-09T00:59:33.173Z,6.90
2017-10-09T01:00:06.522Z,6.90
2017-10-09T01:00:40.228Z,6.90
2017-10-09T01:01:13.930Z,6.90
2017-10-09T01:01:47.633Z,6.90
2017-10-09T01:02:21.670Z,6.90
2017-10-09T01:02:55.382Z,6.90
2017-10-09T01:03:29.086Z,6.90
2017-10-09T01:04:02.798Z,6.90
2017-10-09T01:04:36.507Z,6.90
2017-10-09T01:05:10.998Z,6.90
2017-10-09T01:05:44.704Z,6.90
2017-10-09T01:06:19.173Z,6.90
2017-10-09T01:06:52.864Z,6.80
2017-10-09T01:07:26.926Z,6.90
2017-10-09T01:08:00.628Z,6.90
2017-10-09T01:08:34.346Z,6.90
2017-10-09T01:09:08.079Z,6.80
2017-10-09T01:09:42.192Z,6.80
2017-10-09T01:10:15.552Z,6.80
2017-10-09T01:10:49.257Z,6.80
2017-10-09T01:11:23.732Z,6.80
2017-10-09T01:11:57.426Z,6.70
2017-10-09T01:12:31.143Z,6.70
2017-10-09T01:13:05.638Z,6.70
2017-10-09T01:13:39.773Z,6.70
2017-10-09T01:14:13.469Z,6.70
2017-10-09T01:14:46.851Z,6.70
2017-10-09T01:15:20.210Z,6.60
2017-10-09T01:15:54.685Z,6.60
2017-10-09T01:16:28.395Z,6.60
2017-10-09T01:17:02.867Z,6.60
2017-10-09T01:17:36.905Z,6.60
2017-10-09T01:18:11.368Z,6.50
2017-10-09T01:18:45.078Z,6.50
2017-10-09T01:19:18.785Z,6.60
2017-10-09T01:19:51.962Z,6.60
2017-10-09T01:20:25.782Z,6.50
2017-10-09T01:20:58.798Z,6.50
2017-10-09T01:21:31.823Z,6.50
2017-10-09T01:22:05.429Z,6.50
2017-10-09T01:22:39.315Z,6.50
2017-10-09T01:23:12.671Z,6.50
2017-10-09T01:23:46.377Z,6.50
2017-10-09T01:24:20.493Z,6.40
2017-10-09T01:24:54.188Z,6.40
2017-10-09T01:25:27.973Z,6.40
2017-10-09T01:26:01.690Z,6.40
2017-10-09T01:26:35.401Z,6.40
2017-10-09T01:27:08.909Z,6.40
2017-10-09T01:27:43.744Z,6.40
2017-10-09T01:28:17.465Z,6.40
2017-10-09T01:28:51.211Z,6.40
2017-10-09T01:29:25.690Z,6.40
2017-10-09T01:29:59.404Z,6.40
2017-10-09T01:30:33.918Z,6.40
2017-10-09T01:31:08.399Z,6.40
2017-10-09T01:31:42.125Z,6.30
2017-10-09T01:32:16.605Z,6.40
2017-10-09T01:32:50.641Z,6.30
2017-10-09T01:33:24.349Z,6.30
2017-10-09T01:33:58.058Z,6.30
2017-10-09T01:34:31.776Z,6.40
2017-10-09T01:35:05.492Z,6.30
2017-10-09T01:35:39.994Z,6.30
2017-10-09T01:36:14.465Z,6.30
2017-10-09T01:36:48.189Z,6.30
2017-10-09T01:37:22.669Z,6.30
2017-10-09T01:37:56.702Z,6.30
2017-10-09T01:38:31.181Z,6.30
2017-10-09T01:39:04.009Z,6.30
2017-10-09T01:39:37.725Z,6.30
2017-10-09T01:40:11.457Z,6.30
2017-10-09T01:40:45.934Z,6.30
2017-10-09T01:41:19.642Z,6.30
2017-10-09T01:41:54.108Z,6.30
2017-10-09T01:42:27.817Z,6.30
2017-10-09T01:43:03.242Z,6.30
2017-10-09T01:43:36.958Z,6.30
2017-10-09T01:44:10.661Z,6.30
2017-10-09T01:44:44.365Z,6.30
2017-10-09T01:45:18.819Z,6.20
2017-10-09T01:45:53.363Z,6.20
2017-10-09T01:46:27.062Z,6.30
2017-10-09T01:47:00.770Z,6.30
2017-10-09T01:47:35.302Z,6.30
2017-10-09T01:48:09.585Z,6.20
2017-10-09T01:48:43.290Z,6.20
2017-10-09T01:49:16.994Z,6.20
2017-10-09T01:49:50.693Z,6.20
2017-10-09T01:50:24.401Z,6.20
2017-10-09T01:50:58.220Z,6.20
2017-10-09T01:51:32.676Z,6.20
2017-10-09T01:52:06.390Z,6.20
2017-10-09T01:52:39.898Z,6.20
2017-10-09T01:53:13.921Z,6.20
2017-10-09T01:53:47.634Z,6.20
2017-10-09T01:54:21.428Z,6.20
2017-10-09T01:54:55.279Z,6.20
2017-10-09T01:55:29.747Z,6.20
2017-10-09T01:56:03.450Z,6.20
2017-10-09T01:56:37.158Z,6.20
2017-10-09T01:57:10.854Z,6.20
2017-10-09T01:57:44.554Z,6.20
2017-10-09T01:58:19.064Z,6.10
2017-10-09T01:58:53.535Z,6.10
2017-10-09T01:59:27.233Z,6.10
2017-10-09T02:00:00.940Z,6.10
2017-10-09T02:00:34.646Z,6.10
2017-10-09T02:01:09.131Z,6.10
2017-10-09T02:01:42.854Z,6.10
2017-10-09T02:02:16.546Z,6.10
2017-10-09T02:02:50.237Z,6.10
2017-10-09T02:03:23.966Z,6.10
2017-10-09T02:03:57.674Z,6.10
2017-10-09T02:04:31.378Z,6.00
2017-10-09T02:05:05.072Z,6.00
2017-10-09T02:05:38.797Z,6.00
2017-10-09T02:06:12.524Z,6.00
2017-10-09T02:06:46.229Z,6.00
2017-10-09T02:07:19.953Z,6.00
2017-10-09T02:07:53.653Z,6.00
2017-10-09T02:08:27.742Z,6.00
2017-10-09T02:09:02.218Z,6.00
2017-10-09T02:09:35.918Z,6.00
2017-10-09T02:10:10.396Z,6.00
2017-10-09T02:10:44.126Z,6.00
2017-10-09T02:11:18.584Z,6.00
2017-10-09T02:11:52.277Z,6.00
2017-10-09T02:12:25.992Z,6.00
2017-10-09T02:12:59.360Z,6.00
2017-10-09T02:13:33.341Z,6.00
2017-10-09T02:14:07.049Z,6.00
2017-10-09T02:14:40.759Z,6.00
2017-10-09T02:15:14.468Z,6.00
2017-10-09T02:15:48.930Z,6.00
2017-10-09T02:16:22.645Z,5.90
2017-10-09T02:16:56.352Z,5.90
2017-10-09T02:17:30.040Z,5.90
2017-10-09T02:18:04.500Z,5.90
2017-10-09T02:18:38.505Z,5.90
2017-10-09T02:19:12.031Z,5.90
2017-10-09T02:19:46.505Z,5.90
2017-10-09T02:20:20.335Z,5.80
2017-10-09T02:21:34.816Z,5.80
2017-10-09T02:22:08.515Z,5.80
2017-10-09T02:22:42.249Z,5.80
2017-10-09T02:23:15.997Z,5.80
2017-10-09T02:23:49.663Z,5.80
2017-10-09T02:24:23.189Z,5.80
2017-10-09T02:24:56.705Z,5.80
2017-10-09T02:25:30.412Z,5.80
2017-10-09T02:26:04.878Z,5.80
2017-10-09T02:26:38.398Z,5.70
2017-10-09T02:27:12.878Z,5.80
2017-10-09T02:27:46.583Z,5.70
2017-10-09T02:28:20.283Z,5.70
2017-10-09T02:28:55.114Z,5.70
2017-10-09T02:29:29.577Z,5.70
2017-10-09T02:30:03.361Z,5.70
2017-10-09T02:30:37.085Z,5.70
2017-10-09T02:31:10.782Z,5.70
2017-10-09T02:31:45.061Z,5.70
2017-10-09T02:32:18.762Z,5.60
2017-10-09T02:32:52.494Z,5.70
2017-10-09T02:33:26.195Z,5.70
2017-10-09T02:34:00.277Z,5.70
2017-10-09T02:34:33.985Z,5.70
2017-10-09T02:35:07.689Z,5.70
2017-10-09T02:35:41.378Z,5.70
2017-10-09T02:36:15.079Z,5.70
2017-10-09T02:36:48.776Z,5.70
2017-10-09T02:37:22.480Z,5.70
2017-10-09T02:37:56.173Z,5.70
2017-10-09T02:38:29.870Z,5.70
2017-10-09T02:39:03.371Z,5.70
2017-10-09T02:39:37.832Z,5.70
2017-10-09T02:40:11.536Z,5.70
2017-10-09T02:40:45.239Z,5.70
2017-10-09T02:41:18.939Z,5.70
2017-10-09T02:41:53.449Z,5.70
2017-10-09T02:42:27.914Z,5.70
2017-10-09T02:43:01.619Z,5.60
2017-10-09T02:43:35.317Z,5.70
2017-10-09T02:44:09.345Z,5.70
2017-10-09T02:44:43.828Z,5.70
2017-10-09T02:45:17.530Z,5.60
2017-10-09T02:45:50.559Z,5.70
2017-10-09T02:46:23.772Z,5.60
2017-10-09T02:46:58.044Z,5.60
2017-10-09T02:47:31.749Z,5.60
2017-10-09T02:48:05.448Z,5.60
2017-10-09T02:48:39.140Z,5.60
2017-10-09T02:49:13.128Z,5.60
2017-10-09T02:49:46.829Z,5.60
2017-10-09T02:50:20.523Z,5.60
2017-10-09T02:50:54.220Z,5.60
2017-10-09T02:51:28.018Z,5.60
2017-10-09T02:52:01.529Z,5.60
2017-10-09T02:52:35.036Z,5.60
2017-10-09T02:53:08.730Z,5.50
2017-10-09T02:53:42.090Z,5.50
2017-10-09T02:54:16.184Z,5.50
2017-10-09T02:54:49.716Z,5.50
2017-10-09T02:55:23.409Z,5.50
2017-10-09T02:55:57.128Z,5.50
2017-10-09T02:56:31.612Z,5.50
2017-10-09T02:57:05.154Z,5.50
2017-10-09T02:57:38.846Z,5.50
2017-10-09T02:58:12.541Z,5.60
2017-10-09T02:58:46.252Z,5.60
2017-10-09T02:59:20.298Z,5.60
2017-10-09T02:59:54.581Z,5.60
2017-10-09T03:00:27.949Z,5.60
2017-10-09T03:01:01.656Z,5.60
2017-10-09T03:01:35.463Z,5.60
2017-10-09T03:02:09.920Z,5.60
2017-10-09T03:02:43.625Z,5.60
2017-10-09T03:03:17.318Z,5.60
2017-10-09T03:03:51.014Z,5.60
2017-10-09T03:04:25.048Z,5.60
2017-10-09T03:04:59.518Z,5.60
2017-10-09T03:05:33.222Z,5.60
2017-10-09T03:06:06.926Z,5.60
2017-10-09T03:06:41.398Z,5.60
2017-10-09T03:07:15.131Z,5.60
2017-10-09T03:07:49.662Z,5.60
2017-10-09T03:08:23.374Z,5.50
2017-10-09T03:08:57.073Z,5.50
2017-10-09T03:09:31.138Z,5.50
2017-10-09T03:10:04.849Z,5.50
2017-10-09T03:10:38.568Z,5.50
2017-10-09T03:11:12.277Z,5.50
2017-10-09T03:11:45.975Z,5.50
2017-10-09T03:12:20.444Z,5.50
2017-10-09T03:12:54.140Z,5.50
2017-10-09T03:13:27.845Z,5.50
2017-10-09T03:14:02.329Z,5.50
2017-10-09T03:14:36.195Z,5.50
2017-10-09T03:15:09.889Z,5.50
2017-10-09T03:15:43.594Z,5.50
2017-10-09T03:16:17.296Z,5.40
2017-10-09T03:16:51.000Z,5.50
2017-10-09T03:17:24.690Z,5.50
2017-10-09T03:17:58.393Z,5.50
2017-10-09T03:18:32.099Z,5.50
2017-10-09T03:19:06.578Z,5.40
2017-10-09T03:19:40.109Z,5.40
2017-10-09T03:20:13.279Z,5.50
2017-10-09T03:20:47.558Z,5.40
2017-10-09T03:21:21.234Z,5.50
2017-10-09T03:21:54.730Z,5.50
2017-10-09T03:23:45.785Z,5.50
2017-10-09T03:24:19.296Z,5.40
2017-10-09T03:25:07.709Z,5.50
2017-10-09T03:25:41.234Z,5.50
2017-10-09T03:26:14.947Z,5.50
2017-10-09T03:26:54.945Z,5.50
2017-10-09T03:27:31.663Z,5.50
2017-10-09T03:28:08.730Z,5.50
2017-10-09T03:28:47.477Z,5.50
2017-10-09T03:29:35.952Z,5.50
2017-10-09T03:31:00.661Z,5.50
2017-10-09T03:31:34.232Z,5.50
2017-10-09T03:32:08.513Z,5.60
2017-10-09T03:32:42.205Z,5.60
2017-10-09T03:33:15.922Z,5.60
2017-10-09T03:33:50.199Z,5.60
2017-10-09T03:34:23.807Z,5.60
2017-10-09T03:34:58.110Z,5.60
2017-10-09T03:35:32.737Z,5.60
2017-10-09T03:36:07.009Z,5.60
2017-10-09T03:36:40.521Z,5.60
2017-10-09T03:37:14.825Z,5.60
2017-10-09T03:37:49.124Z,5.60
2017-10-09T03:38:23.388Z,5.60
2017-10-09T03:38:56.916Z,5.60
2017-10-09T03:39:31.380Z,5.60
2017-10-09T03:40:04.904Z,5.60
2017-10-09T03:40:39.649Z,5.60
2017-10-09T03:41:13.160Z,5.60
2017-10-09T03:41:46.692Z,5.60
2017-10-09T03:42:20.966Z,5.60
2017-10-09T03:42:54.485Z,5.60
2017-10-09T03:43:28.764Z,5.60
2017-10-09T03:44:02.467Z,5.60
2017-10-09T03:44:35.973Z,5.60
2017-10-09T03:45:10.446Z,5.60
2017-10-09T03:45:44.282Z,5.60
2017-10-09T03:46:18.147Z,5.60
2017-10-09T03:46:51.850Z,5.60
2017-10-09T03:47:26.317Z,5.60
2017-10-09T03:48:00.034Z,5.60
2017-10-09T03:48:34.165Z,5.60
2017-10-09T03:49:07.857Z,5.60
2017-10-09T03:49:41.542Z,5.60
2017-10-09T03:50:15.353Z,5.60
2017-10-09T03:50:49.447Z,5.60
2017-10-09T03:51:23.434Z,5.60
2017-10-09T03:51:57.180Z,5.60
2017-10-09T03:52:30.900Z,5.60
2017-10-09T03:53:05.365Z,5.60
2017-10-09T03:53:38.905Z,5.60
2017-10-09T03:54:12.437Z,5.60
2017-10-09T03:54:46.151Z,5.60
2017-10-09T03:55:19.852Z,5.60
2017-10-09T03:55:53.868Z,5.60
2017-10-09T03:56:28.154Z,5.60
2017-10-09T03:57:01.502Z,5.60
2017-10-09T03:57:35.200Z,5.60
2017-10-09T03:58:09.368Z,5.60
2017-10-09T03:58:42.727Z,5.60
2017-10-09T03:59:16.429Z,5.60
2017-10-09T03:59:50.134Z,5.60
2017-10-09T04:00:23.884Z,5.60
2017-10-09T04:00:58.627Z,5.60
2017-10-09T04:01:32.328Z,5.50
2017-10-09T04:02:06.033Z,5.60
2017-10-09T04:02:39.783Z,5.60
2017-10-09T04:03:13.480Z,5.60
2017-10-09T04:03:47.186Z,5.60
2017-10-09T04:04:20.886Z,5.60
2017-10-09T04:04:54.601Z,5.60
2017-10-09T04:05:28.302Z,5.50
2017-10-09T04:06:02.330Z,5.60
2017-10-09T04:06:36.824Z,5.50
2017-10-09T04:07:10.517Z,5.50
2017-10-09T04:07:44.993Z,5.60
2017-10-09T04:08:18.694Z,5.50
2017-10-09T04:08:52.383Z,5.50
2017-10-09T04:09:26.080Z,5.50
2017-10-09T04:09:59.768Z,5.50
2017-10-09T04:10:33.457Z,5.50
2017-10-09T04:11:07.498Z,5.50
2017-10-09T04:11:41.276Z,5.50
2017-10-09T04:12:15.874Z,5.50
2017-10-09T04:12:50.371Z,5.50
2017-10-09T04:13:24.076Z,5.50
2017-10-09T04:13:58.537Z,5.50
2017-10-09T04:14:32.237Z,5.50
2017-10-09T04:15:05.949Z,5.50
2017-10-09T04:15:39.688Z,5.50
2017-10-09T04:16:13.664Z,5.50
2017-10-09T04:16:47.790Z,5.50
2017-10-09T04:17:21.297Z,5.50
2017-10-09T04:17:55.009Z,5.50
2017-10-09T04:18:28.709Z,5.50
2017-10-09T04:19:02.409Z,5.50
2017-10-09T04:19:36.878Z,5.50
2017-10-09T04:20:10.621Z,5.50
2017-10-09T04:20:45.155Z,5.50
2017-10-09T04:21:18.991Z,5.50
2017-10-09T04:21:52.505Z,5.40
2017-10-09T04:22:26.976Z,5.40
2017-10-09T04:23:00.678Z,5.40
2017-10-09T04:23:34.413Z,5.50
2017-10-09T04:24:07.915Z,5.40
2017-10-09T04:24:41.626Z,5.40
2017-10-09T04:25:15.330Z,5.40
2017-10-09T04:25:49.061Z,5.40
2017-10-09T04:26:22.949Z,5.40
2017-10-09T04:26:56.654Z,5.40
2017-10-09T04:27:30.372Z,5.40
2017-10-09T04:28:04.082Z,5.40
2017-10-09T04:28:37.599Z,5.40
2017-10-09T04:29:11.553Z,5.40
2017-10-09T04:29:45.056Z,5.40
2017-10-09T04:30:18.765Z,5.40
2017-10-09T04:30:52.465Z,5.40
2017-10-09T04:31:27.165Z,5.40
2017-10-09T04:32:01.443Z,5.40
2017-10-09T04:32:35.150Z,5.40
2017-10-09T04:33:08.862Z,5.40
2017-10-09T04:33:43.332Z,5.40
2017-10-09T04:34:16.891Z,5.30
2017-10-09T04:34:50.454Z,5.40
2017-10-09T04:35:24.151Z,5.30
2017-10-09T04:35:57.860Z,5.30
2017-10-09T04:36:31.833Z,5.30
2017-10-09T04:37:05.548Z,5.30
2017-10-09T04:37:38.903Z,5.30
2017-10-09T04:38:12.262Z,5.30
2017-10-09T04:38:46.737Z,5.30
2017-10-09T04:39:20.442Z,5.30
2017-10-09T04:39:53.808Z,5.30
2017-10-09T04:40:27.164Z,5.30
2017-10-09T04:41:00.200Z,5.30
2017-10-09T04:41:34.831Z,5.30
2017-10-09T04:42:08.183Z,5.30
2017-10-09T04:42:42.645Z,5.30
2017-10-09T04:43:16.392Z,5.30
2017-10-09T04:43:49.741Z,5.30
2017-10-09T04:44:23.478Z,5.30
2017-10-09T04:44:57.939Z,5.30
2017-10-09T04:45:31.296Z,5.30
2017-10-09T04:46:04.889Z,5.30
2017-10-09T04:46:38.864Z,5.30
2017-10-09T04:47:12.582Z,5.30
2017-10-09T04:47:46.286Z,5.30
2017-10-09T04:48:19.994Z,5.40
2017-10-09T04:48:53.806Z,5.30
2017-10-09T04:49:28.093Z,5.30
2017-10-09T04:50:01.433Z,5.30
2017-10-09T04:50:35.129Z,5.30
2017-10-09T04:51:08.868Z,5.30
2017-10-09T04:51:42.872Z,5.30
2017-10-09T04:52:17.340Z,5.30
2017-10-09T04:52:50.864Z,5.30
2017-10-09T04:53:25.327Z,5.30
2017-10-09T04:53:59.032Z,5.30
2017-10-09T04:54:32.735Z,5.30
2017-10-09T04:55:06.261Z,5.30
2017-10-09T04:55:39.778Z,5.30
2017-10-09T04:56:13.284Z,5.30
2017-10-09T04:56:47.320Z,5.30
2017-10-09T04:57:21.794Z,5.30
2017-10-09T04:57:55.506Z,5.30
2017-10-09T04:58:29.975Z,5.30
2017-10-09T04:59:03.681Z,5.30
2017-10-09T04:59:37.372Z,5.30
2017-10-09T05:00:12.577Z,5.30
2017-10-09T05:00:46.269Z,5.30
2017-10-09T05:01:20.013Z,5.30
2017-10-09T05:01:54.821Z,5.30
2017-10-09T05:02:29.291Z,5.30
2017-10-09T05:03:02.656Z,5.30
2017-10-09T05:03:36.365Z,5.30
2017-10-09T05:04:10.088Z,5.30
2017-10-09T05:04:44.217Z,5.30
2017-10-09T05:05:17.238Z,5.30
2017-10-09T05:05:50.601Z,5.30
2017-10-09T05:06:23.626Z,5.30
2017-10-09T05:06:58.456Z,5.30
2017-10-09T05:07:32.922Z,5.30
2017-10-09T05:08:06.628Z,5.30
2017-10-09T05:08:40.337Z,5.30
2017-10-09T05:09:14.810Z,5.30
2017-10-09T05:09:48.521Z,5.30
2017-10-09T05:10:22.238Z,5.30
2017-10-09T05:10:55.953Z,5.30
2017-10-09T05:11:29.678Z,5.30
2017-10-09T05:12:03.406Z,5.30
2017-10-09T05:12:37.139Z,5.40
2017-10-09T05:13:10.842Z,5.30
2017-10-09T05:13:44.543Z,5.40
2017-10-09T05:14:17.901Z,5.40
2017-10-09T05:14:51.609Z,5.40
2017-10-09T05:15:25.318Z,5.40
2017-10-09T05:15:59.802Z,5.40
2017-10-09T05:16:33.523Z,5.40
2017-10-09T05:17:08.134Z,5.50
2017-10-09T05:17:42.422Z,5.50
2017-10-09T05:18:15.789Z,5.50
2017-10-09T05:18:49.484Z,5.50
2017-10-09T05:19:23.193Z,5.50
2017-10-09T05:19:56.626Z,5.50
2017-10-09T05:20:30.433Z,5.50
2017-10-09T05:21:03.777Z,5.60
2017-10-09T05:21:37.123Z,5.60
2017-10-09T05:22:10.837Z,5.60
2017-10-09T05:22:45.314Z,5.60
2017-10-09T05:23:19.019Z,5.60
2017-10-09T05:23:52.727Z,5.60
2017-10-09T05:24:26.840Z,5.50
2017-10-09T05:25:00.185Z,5.60
2017-10-09T05:25:33.872Z,5.50
2017-10-09T05:26:07.227Z,5.50
2017-10-09T05:26:40.924Z,5.50
2017-10-09T05:27:14.905Z,5.50
2017-10-09T05:27:48.631Z,5.50
2017-10-09T05:28:22.330Z,5.40
2017-10-09T05:28:56.028Z,5.40
2017-10-09T05:29:30.497Z,5.40
2017-10-09T05:30:03.663Z,5.40
2017-10-09T05:30:37.361Z,5.40
2017-10-09T05:31:11.070Z,5.40
2017-10-09T05:31:44.768Z,5.40
2017-10-09T05:32:18.498Z,5.40
2017-10-09T05:32:52.196Z,5.40
2017-10-09T05:33:25.908Z,5.30
2017-10-09T05:33:59.609Z,5.30
2017-10-09T05:34:33.307Z,5.30
2017-10-09T05:35:07.034Z,5.30
2017-10-09T05:35:41.331Z,5.30
2017-10-09T05:36:15.823Z,5.30
2017-10-09T05:36:49.530Z,5.30
2017-10-09T05:37:24.297Z,5.30
2017-10-09T05:37:58.009Z,5.30
2017-10-09T05:38:31.730Z,5.30
2017-10-09T05:39:06.193Z,5.20
2017-10-09T05:39:39.891Z,5.30
2017-10-09T05:40:13.597Z,5.20
2017-10-09T05:40:47.300Z,5.30
2017-10-09T05:41:21.816Z,5.20
2017-10-09T05:41:56.290Z,5.20
2017-10-09T05:42:30.368Z,5.20
2017-10-09T05:43:04.102Z,5.20
2017-10-09T05:43:37.923Z,5.20
2017-10-09T05:44:11.634Z,5.20
2017-10-09T05:44:45.350Z,5.20
2017-10-09T05:45:19.062Z,5.20
2017-10-09T05:45:52.815Z,5.30
2017-10-09T05:46:26.531Z,5.30
2017-10-09T05:47:00.255Z,5.30
2017-10-09T05:47:35.005Z,5.30
2017-10-09T05:48:08.709Z,5.30
2017-10-09T05:48:42.525Z,5.30
2017-10-09T05:49:16.243Z,5.30
2017-10-09T05:49:50.392Z,5.30
2017-10-09T05:50:24.126Z,5.30
2017-10-09T05:50:58.696Z,5.30
2017-10-09T05:51:32.403Z,5.30
2017-10-09T05:52:06.097Z,5.30
2017-10-09T05:52:39.842Z,5.30
2017-10-09T05:53:13.366Z,5.30
2017-10-09T05:53:47.088Z,5.40
2017-10-09T05:54:21.593Z,5.40
2017-10-09T05:54:56.071Z,5.40
2017-10-09T05:55:29.909Z,5.40
2017-10-09T05:56:04.386Z,5.40
2017-10-09T05:56:38.092Z,5.40
2017-10-09T05:57:12.560Z,5.50
2017-10-09T05:57:46.266Z,5.40
2017-10-09T05:58:19.964Z,5.50
2017-10-09T05:58:53.676Z,5.50
2017-10-09T05:59:28.166Z,5.50
2017-10-09T06:00:01.891Z,5.50
2017-10-09T06:00:35.885Z,5.50
2017-10-09T06:01:09.600Z,5.50
2017-10-09T06:01:43.301Z,5.50
2017-10-09T06:02:17.013Z,5.50
2017-10-09T06:02:50.754Z,5.60
2017-10-09T06:03:24.483Z,5.60
2017-10-09T06:03:58.180Z,5.60
2017-10-09T06:04:32.004Z,5.60
2017-10-09T06:05:06.479Z,5.60
2017-10-09T06:05:40.532Z,5.60
2017-10-09T06:06:14.236Z,5.60
2017-10-09T06:06:47.940Z,5.70
2017-10-09T06:07:21.637Z,5.70
2017-10-09T06:07:55.348Z,5.70
2017-10-09T06:08:29.041Z,5.70
2017-10-09T06:09:02.557Z,5.70
2017-10-09T06:09:37.052Z,5.70
2017-10-09T06:10:10.777Z,5.70
2017-10-09T06:10:44.412Z,5.80
2017-10-09T06:11:18.122Z,5.80
2017-10-09T06:11:51.837Z,5.80
2017-10-09T06:12:25.556Z,5.80
2017-10-09T06:12:59.259Z,5.90
2017-10-09T06:13:32.953Z,5.90
2017-10-09T06:14:06.651Z,5.90
2017-10-09T06:14:40.370Z,5.90
2017-10-09T06:15:14.869Z,5.90
2017-10-09T06:15:48.893Z,5.90
2017-10-09T06:16:22.593Z,6.00
2017-10-09T06:16:56.286Z,6.00
2017-10-09T06:17:29.993Z,6.00
2017-10-09T06:18:03.709Z,6.00
2017-10-09T06:18:37.438Z,6.10
2017-10-09T06:19:11.921Z,6.10
2017-10-09T06:19:45.639Z,6.10
2017-10-09T06:20:20.106Z,6.20
2017-10-09T06:20:54.139Z,6.20
2017-10-09T06:21:28.612Z,6.20
2017-10-09T06:22:02.328Z,6.20
2017-10-09T06:22:36.801Z,6.30
2017-10-09T06:23:10.500Z,6.30
2017-10-09T06:23:44.197Z,6.30
2017-10-09T06:24:17.900Z,6.40
2017-10-09T06:24:51.472Z,6.40
2017-10-09T06:25:25.978Z,6.50
2017-10-09T06:26:00.014Z,6.40
2017-10-09T06:26:33.718Z,6.50
2017-10-09T06:27:07.418Z,6.50
2017-10-09T06:27:41.121Z,6.50
2017-10-09T06:28:14.823Z,6.50
2017-10-09T06:28:48.520Z,6.60
2017-10-09T06:29:22.056Z,6.60
2017-10-09T06:29:55.773Z,6.60
2017-10-09T06:30:29.474Z,6.60
2017-10-09T06:31:03.543Z,6.70
2017-10-09T06:31:37.262Z,6.70
2017-10-09T06:32:10.981Z,6.70
2017-10-09T06:32:44.688Z,6.70
2017-10-09T06:33:18.396Z,6.70
2017-10-09T06:33:52.105Z,6.80
2017-10-09T06:34:25.841Z,6.80
2017-10-09T06:34:59.578Z,6.80
2017-10-09T06:35:33.295Z,6.80
2017-10-09T06:36:07.363Z,6.90
2017-10-09T06:36:41.106Z,6.90
2017-10-09T06:37:14.925Z,6.90
2017-10-09T06:37:48.626Z,7.00
2017-10-09T06:38:23.097Z,7.00
2017-10-09T06:38:56.802Z,7.00
2017-10-09T06:39:30.515Z,7.00
2017-10-09T06:40:04.985Z,7.10
2017-10-09T06:40:38.687Z,7.10
2017-10-09T06:41:12.731Z,7.10
2017-10-09T06:41:46.442Z,7.10
2017-10-09T06:42:20.164Z,7.10
2017-10-09T06:42:53.873Z,7.20
2017-10-09T06:43:28.342Z,7.20
2017-10-09T06:44:02.051Z,7.20
2017-10-09T06:44:35.766Z,7.20
2017-10-09T06:45:10.272Z,7.30
2017-10-09T06:45:44.745Z,7.30
2017-10-09T06:46:18.830Z,7.30
2017-10-09T06:46:52.670Z,7.40
2017-10-09T06:47:27.134Z,7.40
2017-10-09T06:48:00.836Z,7.40
2017-10-09T06:48:34.540Z,7.40
2017-10-09T06:49:08.247Z,7.50
2017-10-09T06:49:42.777Z,7.50
2017-10-09T06:50:17.243Z,7.50
2017-10-09T06:50:50.940Z,7.50
2017-10-09T06:51:24.973Z,7.60
2017-10-09T06:51:58.671Z,7.60
2017-10-09T06:52:32.402Z,7.60
2017-10-09T06:53:06.123Z,7.60
2017-10-09T06:53:39.816Z,7.60
2017-10-09T06:54:14.289Z,7.70
2017-10-09T06:54:48.039Z,7.70
2017-10-09T06:55:21.802Z,7.70
2017-10-09T06:55:55.523Z,7.70
2017-10-09T06:56:29.196Z,7.80
2017-10-09T06:57:03.671Z,7.80
2017-10-09T06:57:37.379Z,7.80
2017-10-09T06:58:11.081Z,7.90
2017-10-09T06:58:45.549Z,7.90
2017-10-09T06:59:19.247Z,7.90
2017-10-09T06:59:52.952Z,7.90
2017-10-09T07:00:26.638Z,7.90
2017-10-09T07:01:00.338Z,8.00
2017-10-09T07:01:34.356Z,8.00
2017-10-09T07:02:08.827Z,8.10
2017-10-09T07:02:42.528Z,8.10
2017-10-09T07:03:16.227Z,8.10
2017-10-09T07:03:49.921Z,8.10
2017-10-09T07:04:24.389Z,8.10
2017-10-09T07:04:58.122Z,8.10
2017-10-09T07:05:32.612Z,8.20
2017-10-09T07:06:06.303Z,8.20
2017-10-09T07:06:40.333Z,8.20
2017-10-09T07:07:14.812Z,8.30
2017-10-09T07:07:48.621Z,8.30
2017-10-09T07:08:23.114Z,8.30
2017-10-09T07:08:56.831Z,8.30
2017-10-09T07:09:31.306Z,8.40
2017-10-09T07:10:05.006Z,8.40
2017-10-09T07:10:38.705Z,8.40
2017-10-09T07:11:13.187Z,8.50
2017-10-09T07:11:46.916Z,8.50
2017-10-09T07:12:21.389Z,8.50
2017-10-09T07:12:55.117Z,8.50
2017-10-09T07:13:28.837Z,8.50
2017-10-09T07:14:02.566Z,8.60
2017-10-09T07:14:36.277Z,8.60
2017-10-09T07:15:10.781Z,8.60
2017-10-09T07:15:45.245Z,8.70
2017-10-09T07:16:18.942Z,8.70
2017-10-09T07:16:52.995Z,8.70
2017-10-09T07:17:27.461Z,8.70
2017-10-09T07:18:01.186Z,8.70
2017-10-09T07:18:35.660Z,8.80
2017-10-09T07:19:09.384Z,8.80
2017-10-09T07:19:42.957Z,8.90
2017-10-09T07:20:16.670Z,8.90
2017-10-09T07:20:51.128Z,8.90
2017-10-09T07:21:24.636Z,8.90
2017-10-09T07:21:58.457Z,8.90
2017-10-09T07:22:32.200Z,9.00
2017-10-09T07:23:05.909Z,9.00
2017-10-09T07:23:39.481Z,9.00
2017-10-09T07:24:13.209Z,9.10
2017-10-09T07:24:47.606Z,9.10
2017-10-09T07:25:21.904Z,9.20
2017-10-09T07:25:55.601Z,9.10
2017-10-09T07:26:30.086Z,9.20
2017-10-09T07:27:04.119Z,9.20
2017-10-09T07:27:38.397Z,9.20
2017-10-09T07:28:12.864Z,9.20
2017-10-09T07:28:46.738Z,9.20
2017-10-09T07:29:20.519Z,9.30
2017-10-09T07:29:54.841Z,9.30
2017-10-09T07:30:28.552Z,9.30
2017-10-09T07:31:02.249Z,9.30
2017-10-09T07:31:35.965Z,9.30
2017-10-09T07:32:09.991Z,9.40
2017-10-09T07:32:44.462Z,9.40
2017-10-09T07:33:18.165Z,9.40
2017-10-09T07:33:51.864Z,9.50
2017-10-09T07:34:25.562Z,9.50